Mount Lawley Perth Metro, Australia
Current Conditions -  °F | °C
As of 9:00 AM on Saturday 25 Oct 2014 (Local Time) from YPPH Reporting Station
Broken Clouds Broken Clouds  
Wind Chill: 20°   Ceiling: 27000
Heat Index: 20°   Visibility: 6mi
Dew Point: 11°   Wind: 16mph
Humidity: 56%   Direction: 230°SW
Pressure: 30.03"   Gusts: NA
Location:  31.92°S, 115.87°E
Report Text: YPPH 250100Z 23014KT 9999 SCT030 BKN270 20/11 Q1017 NOSIG
Loading
Personal Weather Stations






























Interactive Weather Map
Tropical Storm Tracking
New forecast layout! Learn more

10-Day Weather Forecast

Advertisements
Track Severe Weather on mobile